sensor_id;sensor_type;location;lat;lon;timestamp;pressure;altitude;pressure_sealevel;temperature;humidity
62847;BME280;49477;35.676;139.586;2023-05-19T00:01:19;100707.17;;;29.68;36.07
62847;BME280;49477;35.676;139.586;2023-05-19T00:03:51;100709.36;;;30.12;35.37
62847;BME280;49477;35.676;139.586;2023-05-19T00:06:24;100705.07;;;29.20;35.93
62847;BME280;49477;35.676;139.586;2023-05-19T00:08:57;100718.91;;;29.83;35.54
62847;BME280;49477;35.676;139.586;2023-05-19T00:11:28;100717.39;;;29.34;35.93
62847;BME280;49477;35.676;139.586;2023-05-19T00:13:58;100726.63;;;29.07;36.32
62847;BME280;49477;35.676;139.586;2023-05-19T00:16:29;100712.50;;;29.31;35.92
62847;BME280;49477;35.676;139.586;2023-05-19T00:18:59;100707.09;;;29.20;36.24
62847;BME280;49477;35.676;139.586;2023-05-19T00:21:29;100707.73;;;29.42;36.07
62847;BME280;49477;35.676;139.586;2023-05-19T00:23:59;100685.99;;;29.54;35.87
62847;BME280;49477;35.676;139.586;2023-05-19T00:26:28;100681.17;;;29.86;35.20
62847;BME280;49477;35.676;139.586;2023-05-19T00:28:58;100680.74;;;29.67;35.60
62847;BME280;49477;35.676;139.586;2023-05-19T00:31:27;100677.06;;;29.77;36.11
62847;BME280;49477;35.676;139.586;2023-05-19T00:33:57;100679.81;;;29.50;36.05
62847;BME280;49477;35.676;139.586;2023-05-19T00:36:26;100681.50;;;29.45;36.17
62847;BME280;49477;35.676;139.586;2023-05-19T00:38:56;100678.59;;;29.54;35.73
62847;BME280;49477;35.676;139.586;2023-05-19T00:41:26;100688.48;;;29.86;35.29
62847;BME280;49477;35.676;139.586;2023-05-19T00:43:55;100693.12;;;29.77;35.45
62847;BME280;49477;35.676;139.586;2023-05-19T00:46:25;100692.82;;;29.63;35.64
62847;BME280;49477;35.676;139.586;2023-05-19T00:48:54;100694.12;;;29.41;36.02
62847;BME280;49477;35.676;139.586;2023-05-19T00:51:26;100696.05;;;29.47;35.78
62847;BME280;49477;35.676;139.586;2023-05-19T00:53:56;100688.61;;;29.43;35.48
62847;BME280;49477;35.676;139.586;2023-05-19T00:56:26;100684.55;;;29.32;35.43
62847;BME280;49477;35.676;139.586;2023-05-19T00:58:56;100678.79;;;29.95;35.08
62847;BME280;49477;35.676;139.586;2023-05-19T01:01:26;100676.83;;;29.81;34.67
62847;BME280;49477;35.676;139.586;2023-05-19T01:03:56;100670.98;;;29.68;34.92
62847;BME280;49477;35.676;139.586;2023-05-19T01:06:25;100671.94;;;29.37;35.33
62847;BME280;49477;35.676;139.586;2023-05-19T01:08:55;100675.01;;;29.48;35.45
62847;BME280;49477;35.676;139.586;2023-05-19T01:11:25;100681.18;;;29.65;35.79
62847;BME280;49477;35.676;139.586;2023-05-19T01:13:54;100676.24;;;29.54;35.64
62847;BME280;49477;35.676;139.586;2023-05-19T01:16:28;100689.01;;;29.96;35.07
62847;BME280;49477;35.676;139.586;2023-05-19T01:19:03;100679.50;;;29.21;35.39
62847;BME280;49477;35.676;139.586;2023-05-19T01:22:05;100690.27;;;29.59;35.69
62847;BME280;49477;35.676;139.586;2023-05-19T01:27:22;100681.44;;;29.63;36.49
62847;BME280;49477;35.676;139.586;2023-05-19T01:30:30;100695.29;;;29.29;36.05
62847;BME280;49477;35.676;139.586;2023-05-19T01:33:03;100681.72;;;29.46;36.11
62847;BME280;49477;35.676;139.586;2023-05-19T01:35:35;100679.25;;;29.31;36.13
62847;BME280;49477;35.676;139.586;2023-05-19T01:38:08;100674.27;;;29.32;36.02
62847;BME280;49477;35.676;139.586;2023-05-19T01:40:40;100679.74;;;29.27;36.10
62847;BME280;49477;35.676;139.586;2023-05-19T01:43:16;100674.59;;;29.19;35.90
62847;BME280;49477;35.676;139.586;2023-05-19T01:45:45;100684.62;;;29.38;35.68
62847;BME280;49477;35.676;139.586;2023-05-19T01:48:16;100677.25;;;29.79;35.11
62847;BME280;49477;35.676;139.586;2023-05-19T01:50:46;100684.46;;;29.49;35.25
62847;BME280;49477;35.676;139.586;2023-05-19T01:53:15;100678.77;;;29.24;35.54
62847;BME280;49477;35.676;139.586;2023-05-19T01:55:46;100676.93;;;29.27;35.68
62847;BME280;49477;35.676;139.586;2023-05-19T01:58:21;100678.35;;;29.21;35.71
62847;BME280;49477;35.676;139.586;2023-05-19T02:00:58;100670.75;;;29.81;35.34
62847;BME280;49477;35.676;139.586;2023-05-19T02:03:43;100664.07;;;30.20;34.87
62847;BME280;49477;35.676;139.586;2023-05-19T02:06:21;100655.72;;;29.62;35.05
62847;BME280;49477;35.676;139.586;2023-05-19T02:09:03;100656.21;;;29.51;34.84
62847;BME280;49477;35.676;139.586;2023-05-19T02:11:38;100650.53;;;30.16;34.53
62847;BME280;49477;35.676;139.586;2023-05-19T02:14:15;100646.86;;;30.17;34.35
62847;BME280;49477;35.676;139.586;2023-05-19T02:16:47;100644.45;;;30.27;34.35
62847;BME280;49477;35.676;139.586;2023-05-19T02:19:26;100639.94;;;30.51;33.94
62847;BME280;49477;35.676;139.586;2023-05-19T02:21:56;100635.53;;;30.02;33.97
62847;BME280;49477;35.676;139.586;2023-05-19T02:24:26;100632.43;;;30.03;33.81
62847;BME280;49477;35.676;139.586;2023-05-19T02:26:56;100638.37;;;30.14;33.99
62847;BME280;49477;35.676;139.586;2023-05-19T02:29:25;100641.39;;;29.74;34.29
62847;BME280;49477;35.676;139.586;2023-05-19T02:32:02;100648.59;;;29.70;34.17
62847;BME280;49477;35.676;139.586;2023-05-19T02:34:31;100651.73;;;29.97;34.25
62847;BME280;49477;35.676;139.586;2023-05-19T02:37:01;100650.36;;;29.43;34.17
62847;BME280;49477;35.676;139.586;2023-05-19T02:39:30;100649.68;;;30.06;33.78
62847;BME280;49477;35.676;139.586;2023-05-19T02:42:00;100646.32;;;29.64;34.42
62847;BME280;49477;35.676;139.586;2023-05-19T02:44:32;100655.48;;;30.12;34.79
62847;BME280;49477;35.676;139.586;2023-05-19T02:47:02;100658.79;;;30.05;34.92
62847;BME280;49477;35.676;139.586;2023-05-19T02:49:31;100656.71;;;30.00;35.46
62847;BME280;49477;35.676;139.586;2023-05-19T02:52:01;100655.06;;;30.01;35.77
62847;BME280;49477;35.676;139.586;2023-05-19T02:54:30;100661.98;;;30.05;35.87
62847;BME280;49477;35.676;139.586;2023-05-19T02:57:00;100658.96;;;29.62;36.04
62847;BME280;49477;35.676;139.586;2023-05-19T02:59:30;100659.52;;;29.85;36.41
62847;BME280;49477;35.676;139.586;2023-05-19T03:02:02;100660.00;;;29.14;36.67
62847;BME280;49477;35.676;139.586;2023-05-19T03:04:31;100664.24;;;29.53;37.10
62847;BME280;49477;35.676;139.586;2023-05-19T03:07:01;100664.13;;;29.78;37.16
62847;BME280;49477;35.676;139.586;2023-05-19T03:09:30;100662.24;;;29.94;37.36
62847;BME280;49477;35.676;139.586;2023-05-19T03:12:00;100667.14;;;29.77;37.77
62847;BME280;49477;35.676;139.586;2023-05-19T03:14:30;100661.48;;;29.92;37.76
62847;BME280;49477;35.676;139.586;2023-05-19T03:17:00;100650.00;;;29.93;37.97
62847;BME280;49477;35.676;139.586;2023-05-19T03:19:29;100646.89;;;30.08;37.83
62847;BME280;49477;35.676;139.586;2023-05-19T03:21:58;100639.49;;;29.53;38.11
62847;BME280;49477;35.676;139.586;2023-05-19T03:24:28;100618.27;;;29.64;38.58
62847;BME280;49477;35.676;139.586;2023-05-19T03:26:57;100611.38;;;29.35;38.94
62847;BME280;49477;35.676;139.586;2023-05-19T03:29:26;100613.31;;;29.64;38.95
62847;BME280;49477;35.676;139.586;2023-05-19T03:31:56;100617.43;;;29.55;39.26
62847;BME280;49477;35.676;139.586;2023-05-19T03:34:25;100619.64;;;29.69;38.88
62847;BME280;49477;35.676;139.586;2023-05-19T03:36:55;100619.85;;;29.50;38.97
62847;BME280;49477;35.676;139.586;2023-05-19T03:39:25;100622.28;;;29.42;38.77
62847;BME280;49477;35.676;139.586;2023-05-19T03:41:54;100607.43;;;29.29;39.56
62847;BME280;49477;35.676;139.586;2023-05-19T03:44:23;100597.02;;;28.90;39.74
62847;BME280;49477;35.676;139.586;2023-05-19T03:46:52;100592.58;;;29.46;39.23
62847;BME280;49477;35.676;139.586;2023-05-19T03:49:22;100587.53;;;29.10;39.24
62847;BME280;49477;35.676;139.586;2023-05-19T03:51:51;100574.27;;;29.18;38.97
62847;BME280;49477;35.676;139.586;2023-05-19T03:54:21;100570.50;;;29.43;38.55
62847;BME280;49477;35.676;139.586;2023-05-19T03:56:50;100547.03;;;29.53;38.69
62847;BME280;49477;35.676;139.586;2023-05-19T03:59:20;100560.36;;;29.46;38.88
62847;BME280;49477;35.676;139.586;2023-05-19T04:01:49;100567.88;;;29.64;38.68
62847;BME280;49477;35.676;139.586;2023-05-19T04:04:18;100564.46;;;29.49;38.86
62847;BME280;49477;35.676;139.586;2023-05-19T04:06:48;100570.85;;;29.55;38.53
62847;BME280;49477;35.676;139.586;2023-05-19T04:09:17;100574.37;;;29.60;38.03
62847;BME280;49477;35.676;139.586;2023-05-19T04:11:46;100579.31;;;29.57;37.71
62847;BME280;49477;35.676;139.586;2023-05-19T04:14:15;100581.44;;;29.58;38.04
62847;BME280;49477;35.676;139.586;2023-05-19T04:16:45;100583.49;;;30.30;37.23
62847;BME280;49477;35.676;139.586;2023-05-19T04:19:14;100584.00;;;29.81;38.00
62847;BME280;49477;35.676;139.586;2023-05-19T04:21:43;100576.91;;;30.07;38.18
62847;BME280;49477;35.676;139.586;2023-05-19T04:24:12;100562.22;;;30.13;37.76
62847;BME280;49477;35.676;139.586;2023-05-19T04:26:42;100561.59;;;29.58;38.74
62847;BME280;49477;35.676;139.586;2023-05-19T04:29:11;100562.28;;;29.20;39.23
62847;BME280;49477;35.676;139.586;2023-05-19T04:31:41;100562.99;;;29.22;40.60
62847;BME280;49477;35.676;139.586;2023-05-19T04:34:10;100560.75;;;29.29;39.90
62847;BME280;49477;35.676;139.586;2023-05-19T04:36:39;100558.23;;;29.05;40.23
62847;BME280;49477;35.676;139.586;2023-05-19T04:39:09;100563.71;;;29.58;39.43
62847;BME280;49477;35.676;139.586;2023-05-19T04:41:38;100568.57;;;29.14;40.53
62847;BME280;49477;35.676;139.586;2023-05-19T04:44:07;100561.37;;;29.18;40.25
62847;BME280;49477;35.676;139.586;2023-05-19T04:46:36;100547.41;;;28.56;40.84
62847;BME280;49477;35.676;139.586;2023-05-19T04:49:05;100515.94;;;29.08;41.19
62847;BME280;49477;35.676;139.586;2023-05-19T04:51:35;100497.35;;;29.42;39.37
62847;BME280;49477;35.676;139.586;2023-05-19T04:54:05;100484.48;;;29.41;39.80
62847;BME280;49477;35.676;139.586;2023-05-19T04:56:34;100481.17;;;28.93;41.20
62847;BME280;49477;35.676;139.586;2023-05-19T04:59:05;100484.20;;;28.57;42.00
62847;BME280;49477;35.676;139.586;2023-05-19T05:01:34;100476.55;;;28.58;41.66
62847;BME280;49477;35.676;139.586;2023-05-19T05:04:04;100469.80;;;28.81;41.21
62847;BME280;49477;35.676;139.586;2023-05-19T05:06:33;100470.60;;;28.74;41.22
62847;BME280;49477;35.676;139.586;2023-05-19T05:09:03;100471.57;;;28.74;41.35
62847;BME280;49477;35.676;139.586;2023-05-19T05:11:32;100465.52;;;28.80;40.99
62847;BME280;49477;35.676;139.586;2023-05-19T05:14:02;100459.63;;;28.70;41.15
62847;BME280;49477;35.676;139.586;2023-05-19T05:16:33;100454.30;;;28.86;41.11
62847;BME280;49477;35.676;139.586;2023-05-19T05:19:03;100447.31;;;29.20;39.89
62847;BME280;49477;35.676;139.586;2023-05-19T05:21:32;100454.96;;;28.48;42.29
62847;BME280;49477;35.676;139.586;2023-05-19T05:24:02;100462.17;;;28.89;41.13
62847;BME280;49477;35.676;139.586;2023-05-19T05:26:33;100466.12;;;28.91;41.30
62847;BME280;49477;35.676;139.586;2023-05-19T05:29:03;100478.57;;;28.96;41.19
62847;BME280;49477;35.676;139.586;2023-05-19T05:31:32;100482.79;;;28.69;40.91
62847;BME280;49477;35.676;139.586;2023-05-19T05:34:02;100488.16;;;28.66;40.61
62847;BME280;49477;35.676;139.586;2023-05-19T05:36:31;100483.73;;;28.54;40.86
62847;BME280;49477;35.676;139.586;2023-05-19T05:39:00;100481.11;;;28.40;40.57
62847;BME280;49477;35.676;139.586;2023-05-19T05:41:30;100494.72;;;28.44;40.32
62847;BME280;49477;35.676;139.586;2023-05-19T05:43:59;100482.51;;;28.20;40.05
62847;BME280;49477;35.676;139.586;2023-05-19T05:46:28;100484.76;;;28.30;40.21
62847;BME280;49477;35.676;139.586;2023-05-19T05:48:58;100486.82;;;28.17;40.55
62847;BME280;49477;35.676;139.586;2023-05-19T05:51:28;100492.02;;;28.40;40.00
62847;BME280;49477;35.676;139.586;2023-05-19T05:53:57;100495.58;;;28.37;39.79
62847;BME280;49477;35.676;139.586;2023-05-19T05:56:28;100496.25;;;28.07;39.97
62847;BME280;49477;35.676;139.586;2023-05-19T05:58:57;100495.16;;;27.70;39.66
62847;BME280;49477;35.676;139.586;2023-05-19T06:01:27;100497.92;;;27.92;39.77
62847;BME280;49477;35.676;139.586;2023-05-19T06:03:56;100488.53;;;28.51;38.86
62847;BME280;49477;35.676;139.586;2023-05-19T06:06:26;100501.98;;;28.20;39.35
62847;BME280;49477;35.676;139.586;2023-05-19T06:08:56;100510.33;;;28.04;39.43
62847;BME280;49477;35.676;139.586;2023-05-19T06:11:25;100514.09;;;28.10;39.57
62847;BME280;49477;35.676;139.586;2023-05-19T06:13:55;100516.15;;;27.89;39.70
62847;BME280;49477;35.676;139.586;2023-05-19T06:16:24;100534.89;;;27.66;39.83
62847;BME280;49477;35.676;139.586;2023-05-19T06:18:55;100561.47;;;27.32;40.69
62847;BME280;49477;35.676;139.586;2023-05-19T06:21:24;100578.05;;;27.93;40.38
62847;BME280;49477;35.676;139.586;2023-05-19T06:23:53;100585.79;;;27.44;40.92
62847;BME280;49477;35.676;139.586;2023-05-19T06:26:22;100583.81;;;27.49;41.00
62847;BME280;49477;35.676;139.586;2023-05-19T06:28:52;100577.40;;;27.93;39.62
62847;BME280;49477;35.676;139.586;2023-05-19T06:31:21;100575.34;;;27.31;41.70
62847;BME280;49477;35.676;139.586;2023-05-19T06:33:51;100570.27;;;27.58;40.38
62847;BME280;49477;35.676;139.586;2023-05-19T06:36:20;100572.30;;;27.12;41.31
62847;BME280;49477;35.676;139.586;2023-05-19T06:38:49;100569.98;;;27.21;41.28
62847;BME280;49477;35.676;139.586;2023-05-19T06:41:18;100571.96;;;27.20;41.23
62847;BME280;49477;35.676;139.586;2023-05-19T06:43:48;100569.25;;;27.02;41.73
62847;BME280;49477;35.676;139.586;2023-05-19T06:46:17;100572.96;;;27.11;41.44
62847;BME280;49477;35.676;139.586;2023-05-19T06:48:46;100570.22;;;26.78;41.69
62847;BME280;49477;35.676;139.586;2023-05-19T06:51:16;100572.16;;;26.89;41.88
62847;BME280;49477;35.676;139.586;2023-05-19T06:53:45;100575.23;;;26.91;41.64
62847;BME280;49477;35.676;139.586;2023-05-19T06:56:15;100590.79;;;26.70;41.18
62847;BME280;49477;35.676;139.586;2023-05-19T06:58:44;100594.81;;;27.24;40.97
62847;BME280;49477;35.676;139.586;2023-05-19T07:01:14;100598.91;;;27.02;41.04
62847;BME280;49477;35.676;139.586;2023-05-19T07:03:43;100605.59;;;27.06;40.84
62847;BME280;49477;35.676;139.586;2023-05-19T07:06:13;100612.57;;;26.93;41.03
62847;BME280;49477;35.676;139.586;2023-05-19T07:08:42;100622.99;;;26.57;41.56
62847;BME280;49477;35.676;139.586;2023-05-19T07:11:11;100625.45;;;26.72;41.21
62847;BME280;49477;35.676;139.586;2023-05-19T07:13:40;100630.00;;;26.69;41.37
62847;BME280;49477;35.676;139.586;2023-05-19T07:16:09;100629.47;;;26.68;41.69
62847;BME280;49477;35.676;139.586;2023-05-19T07:18:38;100620.98;;;26.41;41.82
62847;BME280;49477;35.676;139.586;2023-05-19T07:21:08;100609.53;;;26.69;41.64
62847;BME280;49477;35.676;139.586;2023-05-19T07:23:37;100607.00;;;26.65;41.78
62847;BME280;49477;35.676;139.586;2023-05-19T07:26:07;100600.24;;;26.91;40.89
62847;BME280;49477;35.676;139.586;2023-05-19T07:28:36;100584.91;;;26.86;40.92
62847;BME280;49477;35.676;139.586;2023-05-19T07:31:06;100575.39;;;26.99;40.74
62847;BME280;49477;35.676;139.586;2023-05-19T07:33:35;100562.63;;;26.67;41.40
62847;BME280;49477;35.676;139.586;2023-05-19T07:36:05;100558.59;;;27.13;40.43
62847;BME280;49477;35.676;139.586;2023-05-19T07:38:34;100554.07;;;26.90;41.02
62847;BME280;49477;35.676;139.586;2023-05-19T07:41:04;100554.20;;;26.87;40.93
62847;BME280;49477;35.676;139.586;2023-05-19T07:43:33;100551.18;;;26.96;40.78
62847;BME280;49477;35.676;139.586;2023-05-19T07:46:04;100546.30;;;26.97;40.78
62847;BME280;49477;35.676;139.586;2023-05-19T07:48:34;100542.48;;;26.73;41.59
62847;BME280;49477;35.676;139.586;2023-05-19T07:51:03;100549.25;;;27.29;40.15
62847;BME280;49477;35.676;139.586;2023-05-19T07:53:32;100547.00;;;27.33;40.40
62847;BME280;49477;35.676;139.586;2023-05-19T07:56:01;100539.85;;;26.87;40.85
62847;BME280;49477;35.676;139.586;2023-05-19T07:58:31;100534.08;;;27.04;40.48
62847;BME280;49477;35.676;139.586;2023-05-19T08:01:00;100529.46;;;26.84;40.65
62847;BME280;49477;35.676;139.586;2023-05-19T08:03:30;100519.80;;;26.30;42.38
62847;BME280;49477;35.676;139.586;2023-05-19T08:05:58;100519.81;;;26.70;41.20
62847;BME280;49477;35.676;139.586;2023-05-19T08:08:28;100515.40;;;27.03;40.97
62847;BME280;49477;35.676;139.586;2023-05-19T08:10:57;100505.56;;;26.39;41.86
62847;BME280;49477;35.676;139.586;2023-05-19T08:13:29;100504.91;;;26.81;41.21
62847;BME280;49477;35.676;139.586;2023-05-19T08:15:58;100497.31;;;26.51;41.51
62847;BME280;49477;35.676;139.586;2023-05-19T08:18:28;100490.36;;;26.51;42.26
62847;BME280;49477;35.676;139.586;2023-05-19T08:20:57;100488.29;;;26.80;40.99
62847;BME280;49477;35.676;139.586;2023-05-19T08:23:27;100487.12;;;26.13;42.88
62847;BME280;49477;35.676;139.586;2023-05-19T08:25:56;100486.18;;;26.86;42.41
62847;BME280;49477;35.676;139.586;2023-05-19T08:28:25;100489.38;;;26.58;42.38
62847;BME280;49477;35.676;139.586;2023-05-19T08:30:55;100494.28;;;26.25;43.06
62847;BME280;49477;35.676;139.586;2023-05-19T08:33:25;100499.63;;;26.25;43.66
62847;BME280;49477;35.676;139.586;2023-05-19T08:35:55;100504.03;;;26.52;43.06
62847;BME280;49477;35.676;139.586;2023-05-19T08:38:24;100505.10;;;26.38;42.88
62847;BME280;49477;35.676;139.586;2023-05-19T08:40:54;100497.26;;;26.21;43.82
62847;BME280;49477;35.676;139.586;2023-05-19T08:43:23;100505.94;;;26.22;43.58
62847;BME280;49477;35.676;139.586;2023-05-19T08:45:53;100513.51;;;25.90;44.41
62847;BME280;49477;35.676;139.586;2023-05-19T08:48:22;100514.72;;;25.73;44.48
62847;BME280;49477;35.676;139.586;2023-05-19T08:51:00;100516.59;;;25.50;44.27
62847;BME280;49477;35.676;139.586;2023-05-19T08:53:38;100525.26;;;25.53;44.77
62847;BME280;49477;35.676;139.586;2023-05-19T08:56:12;100532.52;;;25.84;45.05
62847;BME280;49477;35.676;139.586;2023-05-19T08:58:43;100529.00;;;25.49;45.42
62847;BME280;49477;35.676;139.586;2023-05-19T09:01:14;100518.90;;;25.74;44.98
62847;BME280;49477;35.676;139.586;2023-05-19T09:03:44;100519.16;;;25.71;44.93
62847;BME280;49477;35.676;139.586;2023-05-19T09:06:14;100518.54;;;25.74;44.66
62847;BME280;49477;35.676;139.586;2023-05-19T09:08:43;100514.33;;;25.76;44.47
62847;BME280;49477;35.676;139.586;2023-05-19T09:11:13;100513.79;;;25.49;45.01
62847;BME280;49477;35.676;139.586;2023-05-19T09:13:42;100510.71;;;25.43;45.70
62847;BME280;49477;35.676;139.586;2023-05-19T09:16:11;100503.62;;;25.37;45.94
62847;BME280;49477;35.676;139.586;2023-05-19T09:18:41;100492.07;;;25.25;46.15
62847;BME280;49477;35.676;139.586;2023-05-19T09:21:26;100461.19;;;25.53;45.17
62847;BME280;49477;35.676;139.586;2023-05-19T09:23:56;100433.98;;;25.42;45.46
62847;BME280;49477;35.676;139.586;2023-05-19T09:26:25;100426.28;;;25.22;45.98
62847;BME280;49477;35.676;139.586;2023-05-19T09:29:11;100409.32;;;25.40;45.30
62847;BME280;49477;35.676;139.586;2023-05-19T09:31:42;100390.84;;;25.71;45.86
62847;BME280;49477;35.676;139.586;2023-05-19T09:34:15;100370.84;;;25.29;46.05
62847;BME280;49477;35.676;139.586;2023-05-19T09:36:46;100361.11;;;25.18;45.95
62847;BME280;49477;35.676;139.586;2023-05-19T09:39:17;100388.48;;;25.33;45.83
62847;BME280;49477;35.676;139.586;2023-05-19T09:41:47;100418.64;;;25.11;45.95
62847;BME280;49477;35.676;139.586;2023-05-19T09:44:22;100420.77;;;25.19;45.76
62847;BME280;49477;35.676;139.586;2023-05-19T09:46:52;100409.15;;;25.08;45.86
62847;BME280;49477;35.676;139.586;2023-05-19T09:49:22;100411.44;;;25.28;45.54
62847;BME280;49477;35.676;139.586;2023-05-19T09:51:54;100414.14;;;25.40;46.14
62847;BME280;49477;35.676;139.586;2023-05-19T09:54:24;100401.77;;;25.44;45.75
62847;BME280;49477;35.676;139.586;2023-05-19T09:56:58;100386.02;;;25.24;45.03
62847;BME280;49477;35.676;139.586;2023-05-19T09:59:28;100371.67;;;25.25;45.75
62847;BME280;49477;35.676;139.586;2023-05-19T10:01:58;100365.77;;;24.92;45.87
62847;BME280;49477;35.676;139.586;2023-05-19T10:04:29;100357.56;;;25.05;45.95
62847;BME280;49477;35.676;139.586;2023-05-19T10:06:59;100362.54;;;24.81;46.03
62847;BME280;49477;35.676;139.586;2023-05-19T10:09:32;100358.97;;;25.28;45.90
62847;BME280;49477;35.676;139.586;2023-05-19T10:12:02;100365.71;;;24.51;46.66
62847;BME280;49477;35.676;139.586;2023-05-19T10:14:32;100378.79;;;24.56;46.83
62847;BME280;49477;35.676;139.586;2023-05-19T10:17:02;100393.58;;;24.81;46.74
62847;BME280;49477;35.676;139.586;2023-05-19T10:19:31;100410.36;;;24.81;46.82
62847;BME280;49477;35.676;139.586;2023-05-19T10:22:01;100407.67;;;24.49;46.83
62847;BME280;49477;35.676;139.586;2023-05-19T10:24:31;100420.71;;;24.55;47.26
62847;BME280;49477;35.676;139.586;2023-05-19T10:27:04;100438.27;;;24.07;47.50
62847;BME280;49477;35.676;139.586;2023-05-19T10:29:38;100439.27;;;24.72;46.70
62847;BME280;49477;35.676;139.586;2023-05-19T10:32:13;100441.40;;;24.68;47.02
62847;BME280;49477;35.676;139.586;2023-05-19T10:37:16;100444.26;;;25.00;47.20
62847;BME280;49477;35.676;139.586;2023-05-19T10:39:51;100439.34;;;24.78;46.59
62847;BME280;49477;35.676;139.586;2023-05-19T10:42:31;100438.81;;;24.72;46.65
62847;BME280;49477;35.676;139.586;2023-05-19T10:45:12;100438.02;;;24.37;46.89
62847;BME280;49477;35.676;139.586;2023-05-19T10:47:41;100451.13;;;24.54;46.82
62847;BME280;49477;35.676;139.586;2023-05-19T10:50:11;100454.42;;;24.54;46.87
62847;BME280;49477;35.676;139.586;2023-05-19T10:52:41;100449.47;;;24.37;47.05
62847;BME280;49477;35.676;139.586;2023-05-19T10:55:12;100440.71;;;24.52;46.77
62847;BME280;49477;35.676;139.586;2023-05-19T10:57:53;100434.72;;;24.40;47.27
62847;BME280;49477;35.676;139.586;2023-05-19T11:00:28;100438.87;;;24.50;46.97
62847;BME280;49477;35.676;139.586;2023-05-19T11:03:13;100439.45;;;24.46;47.01
62847;BME280;49477;35.676;139.586;2023-05-19T11:05:42;100429.54;;;24.29;47.23
62847;BME280;49477;35.676;139.586;2023-05-19T11:08:12;100426.46;;;24.17;47.33
62847;BME280;49477;35.676;139.586;2023-05-19T11:10:43;100424.10;;;24.44;47.32
62847;BME280;49477;35.676;139.586;2023-05-19T11:13:19;100426.13;;;24.22;46.65
62847;BME280;49477;35.676;139.586;2023-05-19T11:15:48;100422.96;;;24.32;47.74
62847;BME280;49477;35.676;139.586;2023-05-19T11:18:19;100423.45;;;23.86;48.29
62847;BME280;49477;35.676;139.586;2023-05-19T11:20:55;100429.33;;;24.11;48.03
62847;BME280;49477;35.676;139.586;2023-05-19T11:23:29;100430.48;;;24.21;48.66
62847;BME280;49477;35.676;139.586;2023-05-19T11:26:02;100426.21;;;23.72;48.67
62847;BME280;49477;35.676;139.586;2023-05-19T11:28:32;100430.69;;;24.05;48.46
62847;BME280;49477;35.676;139.586;2023-05-19T11:31:01;100444.45;;;23.93;48.85
62847;BME280;49477;35.676;139.586;2023-05-19T11:33:32;100452.30;;;24.18;48.06
62847;BME280;49477;35.676;139.586;2023-05-19T11:36:01;100447.90;;;23.88;47.79
62847;BME280;49477;35.676;139.586;2023-05-19T11:38:32;100443.73;;;24.14;48.16
62847;BME280;49477;35.676;139.586;2023-05-19T11:41:03;100449.27;;;23.83;48.22
62847;BME280;49477;35.676;139.586;2023-05-19T11:43:32;100454.64;;;23.80;48.31
62847;BME280;49477;35.676;139.586;2023-05-19T11:46:02;100458.40;;;23.72;48.50
62847;BME280;49477;35.676;139.586;2023-05-19T11:48:31;100456.77;;;24.01;48.37
62847;BME280;49477;35.676;139.586;2023-05-19T11:51:01;100453.50;;;23.91;48.48
62847;BME280;49477;35.676;139.586;2023-05-19T11:53:30;100452.49;;;24.41;47.70
62847;BME280;49477;35.676;139.586;2023-05-19T11:56:03;100451.95;;;24.17;47.24
62847;BME280;49477;35.676;139.586;2023-05-19T11:58:32;100448.88;;;24.35;47.87
62847;BME280;49477;35.676;139.586;2023-05-19T12:01:04;100444.89;;;24.12;47.27
62847;BME280;49477;35.676;139.586;2023-05-19T12:03:33;100440.65;;;24.00;47.76
62847;BME280;49477;35.676;139.586;2023-05-19T12:06:04;100435.90;;;24.24;47.13
62847;BME280;49477;35.676;139.586;2023-05-19T12:08:34;100429.68;;;24.32;46.55
62847;BME280;49477;35.676;139.586;2023-05-19T12:11:04;100425.19;;;24.53;46.03
62847;BME280;49477;35.676;139.586;2023-05-19T12:13:33;100431.53;;;24.43;46.59
62847;BME280;49477;35.676;139.586;2023-05-19T12:16:03;100441.92;;;24.20;47.08
62847;BME280;49477;35.676;139.586;2023-05-19T12:18:37;100435.46;;;24.46;46.03
62847;BME280;49477;35.676;139.586;2023-05-19T12:21:06;100430.14;;;24.56;45.84
62847;BME280;49477;35.676;139.586;2023-05-19T12:23:36;100430.33;;;24.38;46.79
62847;BME280;49477;35.676;139.586;2023-05-19T12:26:06;100426.26;;;25.10;44.53
62847;BME280;49477;35.676;139.586;2023-05-19T12:28:35;100427.59;;;24.89;45.32
62847;BME280;49477;35.676;139.586;2023-05-19T12:31:04;100422.41;;;24.68;44.56
62847;BME280;49477;35.676;139.586;2023-05-19T12:33:34;100420.08;;;25.07;44.72
62847;BME280;49477;35.676;139.586;2023-05-19T12:36:04;100413.59;;;24.80;45.22
62847;BME280;49477;35.676;139.586;2023-05-19T12:38:33;100411.68;;;24.38;46.40
62847;BME280;49477;35.676;139.586;2023-05-19T12:41:02;100413.62;;;24.57;45.44
62847;BME280;49477;35.676;139.586;2023-05-19T12:43:32;100409.45;;;24.40;45.70
62847;BME280;49477;35.676;139.586;2023-05-19T12:46:10;100403.69;;;24.68;45.26
62847;BME280;49477;35.676;139.586;2023-05-19T12:48:41;100397.04;;;24.58;44.88
62847;BME280;49477;35.676;139.586;2023-05-19T12:51:11;100389.53;;;24.77;45.12
62847;BME280;49477;35.676;139.586;2023-05-19T12:53:43;100386.18;;;24.79;45.12